sensor_id;sensor_type;location;lat;lon;timestamp;temperature;humidity
7934;DHT22;4012;48.896;9.192;2023-05-29T00:00:04;17.20;99.90
7934;DHT22;4012;48.896;9.192;2023-05-29T00:02:33;17.20;99.90
7934;DHT22;4012;48.896;9.192;2023-05-29T00:04:58;17.10;99.90
7934;DHT22;4012;48.896;9.192;2023-05-29T00:07:29;17.10;99.90
7934;DHT22;4012;48.896;9.192;2023-05-29T00:09:54;17.10;99.90
7934;DHT22;4012;48.896;9.192;2023-05-29T00:12:20;17.00;99.90
7934;DHT22;4012;48.896;9.192;2023-05-29T00:14:47;16.90;99.90
7934;DHT22;4012;48.896;9.192;2023-05-29T00:17:13;16.80;99.90
7934;DHT22;4012;48.896;9.192;2023-05-29T00:19:41;16.80;99.90
7934;DHT22;4012;48.896;9.192;2023-05-29T00:22:06;16.70;99.90
7934;DHT22;4012;48.896;9.192;2023-05-29T00:24:32;16.60;99.90
7934;DHT22;4012;48.896;9.192;2023-05-29T00:26:58;16.50;99.90
7934;DHT22;4012;48.896;9.192;2023-05-29T00:29:23;16.50;99.90
7934;DHT22;4012;48.896;9.192;2023-05-29T00:31:49;16.50;99.90
7934;DHT22;4012;48.896;9.192;2023-05-29T00:34:14;16.40;99.90
7934;DHT22;4012;48.896;9.192;2023-05-29T00:36:40;16.40;99.90
7934;DHT22;4012;48.896;9.192;2023-05-29T00:39:06;16.30;99.90
7934;DHT22;4012;48.896;9.192;2023-05-29T00:41:31;16.30;99.90
7934;DHT22;4012;48.896;9.192;2023-05-29T00:43:57;16.30;99.90
7934;DHT22;4012;48.896;9.192;2023-05-29T00:46:22;16.30;99.90
7934;DHT22;4012;48.896;9.192;2023-05-29T00:48:48;16.20;99.90
7934;DHT22;4012;48.896;9.192;2023-05-29T00:51:15;16.20;99.90
7934;DHT22;4012;48.896;9.192;2023-05-29T00:53:42;16.20;99.90
7934;DHT22;4012;48.896;9.192;2023-05-29T00:56:09;16.20;99.90
7934;DHT22;4012;48.896;9.192;2023-05-29T00:58:36;16.20;99.90
7934;DHT22;4012;48.896;9.192;2023-05-29T01:01:02;16.10;99.90
7934;DHT22;4012;48.896;9.192;2023-05-29T01:03:28;16.10;99.90
7934;DHT22;4012;48.896;9.192;2023-05-29T01:05:54;16.00;99.90
7934;DHT22;4012;48.896;9.192;2023-05-29T01:08:20;16.00;99.90
7934;DHT22;4012;48.896;9.192;2023-05-29T01:10:46;16.00;99.90
7934;DHT22;4012;48.896;9.192;2023-05-29T01:13:19;15.80;99.90
7934;DHT22;4012;48.896;9.192;2023-05-29T01:15:57;15.70;99.90
7934;DHT22;4012;48.896;9.192;2023-05-29T01:19:05;15.60;99.90
7934;DHT22;4012;48.896;9.192;2023-05-29T01:21:59;15.60;99.90
7934;DHT22;4012;48.896;9.192;2023-05-29T01:24:44;15.50;99.90
7934;DHT22;4012;48.896;9.192;2023-05-29T01:27:15;15.40;99.90
7934;DHT22;4012;48.896;9.192;2023-05-29T01:29:43;15.40;99.90
7934;DHT22;4012;48.896;9.192;2023-05-29T01:32:11;15.40;99.90
7934;DHT22;4012;48.896;9.192;2023-05-29T01:34:36;15.40;99.90
7934;DHT22;4012;48.896;9.192;2023-05-29T01:37:02;15.40;99.90
7934;DHT22;4012;48.896;9.192;2023-05-29T01:39:28;15.30;99.90
7934;DHT22;4012;48.896;9.192;2023-05-29T01:41:55;15.20;99.90
7934;DHT22;4012;48.896;9.192;2023-05-29T01:44:21;15.20;99.90
7934;DHT22;4012;48.896;9.192;2023-05-29T01:46:46;15.20;99.90
7934;DHT22;4012;48.896;9.192;2023-05-29T01:49:13;15.10;99.90
7934;DHT22;4012;48.896;9.192;2023-05-29T01:51:41;15.00;99.90
7934;DHT22;4012;48.896;9.192;2023-05-29T01:54:07;15.00;99.90
7934;DHT22;4012;48.896;9.192;2023-05-29T01:56:33;15.00;99.90
7934;DHT22;4012;48.896;9.192;2023-05-29T01:59:01;15.00;99.90
7934;DHT22;4012;48.896;9.192;2023-05-29T02:01:27;14.90;99.90
7934;DHT22;4012;48.896;9.192;2023-05-29T02:03:53;14.90;99.90
7934;DHT22;4012;48.896;9.192;2023-05-29T02:06:19;14.80;99.90
7934;DHT22;4012;48.896;9.192;2023-05-29T02:08:45;14.80;99.90
7934;DHT22;4012;48.896;9.192;2023-05-29T02:11:11;14.80;99.90
7934;DHT22;4012;48.896;9.192;2023-05-29T02:13:37;14.80;99.90
7934;DHT22;4012;48.896;9.192;2023-05-29T02:16:03;14.80;99.90
7934;DHT22;4012;48.896;9.192;2023-05-29T02:18:29;14.80;99.90
7934;DHT22;4012;48.896;9.192;2023-05-29T02:20:54;14.70;99.90
7934;DHT22;4012;48.896;9.192;2023-05-29T02:23:20;14.70;99.90
7934;DHT22;4012;48.896;9.192;2023-05-29T02:25:46;14.60;99.90
7934;DHT22;4012;48.896;9.192;2023-05-29T02:28:12;14.60;99.90
7934;DHT22;4012;48.896;9.192;2023-05-29T02:30:37;14.60;99.90
7934;DHT22;4012;48.896;9.192;2023-05-29T02:33:03;14.60;99.90
7934;DHT22;4012;48.896;9.192;2023-05-29T02:35:29;14.60;99.90
7934;DHT22;4012;48.896;9.192;2023-05-29T02:37:55;14.60;99.90
7934;DHT22;4012;48.896;9.192;2023-05-29T02:40:20;14.60;99.90
7934;DHT22;4012;48.896;9.192;2023-05-29T02:42:46;14.50;99.90
7934;DHT22;4012;48.896;9.192;2023-05-29T02:45:13;14.50;99.90
7934;DHT22;4012;48.896;9.192;2023-05-29T02:47:38;14.40;99.90
7934;DHT22;4012;48.896;9.192;2023-05-29T02:50:05;14.50;99.90
7934;DHT22;4012;48.896;9.192;2023-05-29T02:52:31;14.40;99.90
7934;DHT22;4012;48.896;9.192;2023-05-29T02:54:57;14.40;99.90
7934;DHT22;4012;48.896;9.192;2023-05-29T02:57:24;14.40;99.90
7934;DHT22;4012;48.896;9.192;2023-05-29T02:59:50;14.40;99.90
7934;DHT22;4012;48.896;9.192;2023-05-29T03:02:17;14.40;99.90
7934;DHT22;4012;48.896;9.192;2023-05-29T03:04:42;14.30;99.90
7934;DHT22;4012;48.896;9.192;2023-05-29T03:07:08;14.40;99.90
7934;DHT22;4012;48.896;9.192;2023-05-29T03:09:35;14.30;99.90
7934;DHT22;4012;48.896;9.192;2023-05-29T03:12:01;14.30;99.90
7934;DHT22;4012;48.896;9.192;2023-05-29T03:14:27;14.30;99.90
7934;DHT22;4012;48.896;9.192;2023-05-29T03:16:53;14.20;99.90
7934;DHT22;4012;48.896;9.192;2023-05-29T03:19:19;14.20;99.90
7934;DHT22;4012;48.896;9.192;2023-05-29T03:21:45;14.10;99.90
7934;DHT22;4012;48.896;9.192;2023-05-29T03:24:11;14.10;99.90
7934;DHT22;4012;48.896;9.192;2023-05-29T03:26:39;14.00;99.90
7934;DHT22;4012;48.896;9.192;2023-05-29T03:29:04;14.00;99.90
7934;DHT22;4012;48.896;9.192;2023-05-29T03:31:31;13.90;99.90
7934;DHT22;4012;48.896;9.192;2023-05-29T03:33:56;13.90;99.90
7934;DHT22;4012;48.896;9.192;2023-05-29T03:36:22;13.90;99.90
7934;DHT22;4012;48.896;9.192;2023-05-29T03:38:47;13.90;99.90
7934;DHT22;4012;48.896;9.192;2023-05-29T03:41:13;13.80;99.90
7934;DHT22;4012;48.896;9.192;2023-05-29T03:43:39;13.90;99.90
7934;DHT22;4012;48.896;9.192;2023-05-29T03:46:04;13.80;99.90
7934;DHT22;4012;48.896;9.192;2023-05-29T03:48:30;13.80;99.90
7934;DHT22;4012;48.896;9.192;2023-05-29T03:50:55;13.80;99.90
7934;DHT22;4012;48.896;9.192;2023-05-29T03:53:21;13.80;99.90
7934;DHT22;4012;48.896;9.192;2023-05-29T03:55:47;13.80;99.90
7934;DHT22;4012;48.896;9.192;2023-05-29T03:58:12;13.80;99.90
7934;DHT22;4012;48.896;9.192;2023-05-29T04:00:38;13.80;99.90
7934;DHT22;4012;48.896;9.192;2023-05-29T04:03:04;13.80;99.90
7934;DHT22;4012;48.896;9.192;2023-05-29T04:05:30;13.80;99.90
7934;DHT22;4012;48.896;9.192;2023-05-29T04:07:56;13.90;99.90
7934;DHT22;4012;48.896;9.192;2023-05-29T04:10:22;13.80;99.90
7934;DHT22;4012;48.896;9.192;2023-05-29T04:12:48;13.80;99.90
7934;DHT22;4012;48.896;9.192;2023-05-29T04:15:14;13.90;99.90
7934;DHT22;4012;48.896;9.192;2023-05-29T04:17:40;14.00;99.90
7934;DHT22;4012;48.896;9.192;2023-05-29T04:20:06;14.10;99.90
7934;DHT22;4012;48.896;9.192;2023-05-29T04:22:37;14.10;99.90
7934;DHT22;4012;48.896;9.192;2023-05-29T04:25:04;14.20;99.90
7934;DHT22;4012;48.896;9.192;2023-05-29T04:27:30;14.20;99.90
7934;DHT22;4012;48.896;9.192;2023-05-29T04:29:58;14.20;99.90
7934;DHT22;4012;48.896;9.192;2023-05-29T04:32:23;14.30;99.90
7934;DHT22;4012;48.896;9.192;2023-05-29T04:34:50;14.40;99.90
7934;DHT22;4012;48.896;9.192;2023-05-29T04:37:16;14.50;99.90
7934;DHT22;4012;48.896;9.192;2023-05-29T04:39:42;14.50;99.90
7934;DHT22;4012;48.896;9.192;2023-05-29T04:42:08;14.60;99.90
7934;DHT22;4012;48.896;9.192;2023-05-29T04:44:34;14.70;99.90
7934;DHT22;4012;48.896;9.192;2023-05-29T04:47:00;14.60;99.90
7934;DHT22;4012;48.896;9.192;2023-05-29T04:49:28;14.60;99.90
7934;DHT22;4012;48.896;9.192;2023-05-29T04:51:54;14.60;99.90
7934;DHT22;4012;48.896;9.192;2023-05-29T04:54:21;14.50;99.90
7934;DHT22;4012;48.896;9.192;2023-05-29T04:56:47;14.60;99.90
7934;DHT22;4012;48.896;9.192;2023-05-29T04:59:13;14.60;99.90
7934;DHT22;4012;48.896;9.192;2023-05-29T05:01:39;14.80;99.90
7934;DHT22;4012;48.896;9.192;2023-05-29T05:04:04;14.80;99.90
7934;DHT22;4012;48.896;9.192;2023-05-29T05:06:30;14.90;99.90
7934;DHT22;4012;48.896;9.192;2023-05-29T05:08:56;14.90;99.90
7934;DHT22;4012;48.896;9.192;2023-05-29T05:11:23;15.00;99.90
7934;DHT22;4012;48.896;9.192;2023-05-29T05:13:49;15.00;99.90
7934;DHT22;4012;48.896;9.192;2023-05-29T05:16:15;15.00;99.90
7934;DHT22;4012;48.896;9.192;2023-05-29T05:18:43;15.00;99.90
7934;DHT22;4012;48.896;9.192;2023-05-29T05:21:08;15.10;99.90
7934;DHT22;4012;48.896;9.192;2023-05-29T05:23:34;15.10;99.90
7934;DHT22;4012;48.896;9.192;2023-05-29T05:26:00;15.20;99.90
7934;DHT22;4012;48.896;9.192;2023-05-29T05:28:25;15.20;99.90
7934;DHT22;4012;48.896;9.192;2023-05-29T05:30:51;15.30;99.90
7934;DHT22;4012;48.896;9.192;2023-05-29T05:33:17;15.30;99.90
7934;DHT22;4012;48.896;9.192;2023-05-29T05:35:43;15.40;99.90
7934;DHT22;4012;48.896;9.192;2023-05-29T05:38:08;15.50;99.90
7934;DHT22;4012;48.896;9.192;2023-05-29T05:40:34;15.30;99.90
7934;DHT22;4012;48.896;9.192;2023-05-29T05:43:00;15.20;99.90
7934;DHT22;4012;48.896;9.192;2023-05-29T05:45:25;15.20;99.90
7934;DHT22;4012;48.896;9.192;2023-05-29T05:47:51;15.30;99.90
7934;DHT22;4012;48.896;9.192;2023-05-29T05:50:17;15.40;99.90
7934;DHT22;4012;48.896;9.192;2023-05-29T05:52:42;15.60;99.90
7934;DHT22;4012;48.896;9.192;2023-05-29T05:55:08;15.70;99.90
7934;DHT22;4012;48.896;9.192;2023-05-29T05:57:34;15.80;99.90
7934;DHT22;4012;48.896;9.192;2023-05-29T06:00:01;15.90;99.90
7934;DHT22;4012;48.896;9.192;2023-05-29T06:02:29;16.00;99.90
7934;DHT22;4012;48.896;9.192;2023-05-29T06:04:55;15.80;99.90
7934;DHT22;4012;48.896;9.192;2023-05-29T06:07:21;15.90;99.90
7934;DHT22;4012;48.896;9.192;2023-05-29T06:09:46;16.10;99.90
7934;DHT22;4012;48.896;9.192;2023-05-29T06:12:12;16.00;99.90
7934;DHT22;4012;48.896;9.192;2023-05-29T06:14:38;16.00;99.90
7934;DHT22;4012;48.896;9.192;2023-05-29T06:17:04;16.60;99.90
7934;DHT22;4012;48.896;9.192;2023-05-29T06:19:29;18.50;99.90
7934;DHT22;4012;48.896;9.192;2023-05-29T06:21:55;20.40;99.90
7934;DHT22;4012;48.896;9.192;2023-05-29T06:24:20;21.20;99.90
7934;DHT22;4012;48.896;9.192;2023-05-29T06:26:46;21.40;99.90
7934;DHT22;4012;48.896;9.192;2023-05-29T06:29:12;19.70;99.90
7934;DHT22;4012;48.896;9.192;2023-05-29T06:31:37;20.50;99.90
7934;DHT22;4012;48.896;9.192;2023-05-29T06:34:03;21.40;99.90
7934;DHT22;4012;48.896;9.192;2023-05-29T06:36:28;23.40;99.90
7934;DHT22;4012;48.896;9.192;2023-05-29T06:38:54;24.00;99.90
7934;DHT22;4012;48.896;9.192;2023-05-29T06:41:19;24.90;99.90
7934;DHT22;4012;48.896;9.192;2023-05-29T06:43:46;25.00;99.90
7934;DHT22;4012;48.896;9.192;2023-05-29T06:46:11;25.50;99.90
7934;DHT22;4012;48.896;9.192;2023-05-29T06:48:37;24.70;99.90
7934;DHT22;4012;48.896;9.192;2023-05-29T06:51:03;25.40;99.90
7934;DHT22;4012;48.896;9.192;2023-05-29T06:53:35;25.70;99.90
7934;DHT22;4012;48.896;9.192;2023-05-29T06:56:01;24.40;99.90
7934;DHT22;4012;48.896;9.192;2023-05-29T06:58:27;25.10;99.90
7934;DHT22;4012;48.896;9.192;2023-05-29T07:00:52;25.80;99.90
7934;DHT22;4012;48.896;9.192;2023-05-29T07:03:18;26.60;99.90
7934;DHT22;4012;48.896;9.192;2023-05-29T07:05:43;27.30;99.90
7934;DHT22;4012;48.896;9.192;2023-05-29T07:08:09;27.80;99.90
7934;DHT22;4012;48.896;9.192;2023-05-29T07:10:35;28.40;99.90
7934;DHT22;4012;48.896;9.192;2023-05-29T07:13:00;29.10;99.90
7934;DHT22;4012;48.896;9.192;2023-05-29T07:15:26;29.60;99.90
7934;DHT22;4012;48.896;9.192;2023-05-29T07:17:51;29.10;99.90
7934;DHT22;4012;48.896;9.192;2023-05-29T07:20:17;29.10;99.90
7934;DHT22;4012;48.896;9.192;2023-05-29T07:22:45;28.70;99.90
7934;DHT22;4012;48.896;9.192;2023-05-29T07:25:11;27.70;99.90
7934;DHT22;4012;48.896;9.192;2023-05-29T07:27:36;28.70;99.90
7934;DHT22;4012;48.896;9.192;2023-05-29T07:30:02;26.60;99.90
7934;DHT22;4012;48.896;9.192;2023-05-29T07:32:28;26.60;99.90
7934;DHT22;4012;48.896;9.192;2023-05-29T07:34:54;27.00;99.90
7934;DHT22;4012;48.896;9.192;2023-05-29T07:37:21;28.30;99.90
7934;DHT22;4012;48.896;9.192;2023-05-29T07:39:46;27.80;99.90
7934;DHT22;4012;48.896;9.192;2023-05-29T07:42:12;27.80;99.90
7934;DHT22;4012;48.896;9.192;2023-05-29T07:44:38;28.50;99.90
7934;DHT22;4012;48.896;9.192;2023-05-29T07:47:24;29.70;99.90
7934;DHT22;4012;48.896;9.192;2023-05-29T07:49:49;28.60;99.90
7934;DHT22;4012;48.896;9.192;2023-05-29T07:52:15;29.00;99.90
7934;DHT22;4012;48.896;9.192;2023-05-29T07:54:41;27.30;99.90
7934;DHT22;4012;48.896;9.192;2023-05-29T07:57:06;28.00;99.90
7934;DHT22;4012;48.896;9.192;2023-05-29T07:59:35;27.20;99.90
7934;DHT22;4012;48.896;9.192;2023-05-29T08:02:01;28.80;99.90
7934;DHT22;4012;48.896;9.192;2023-05-29T08:04:28;29.70;99.90
7934;DHT22;4012;48.896;9.192;2023-05-29T08:06:54;28.40;99.90
7934;DHT22;4012;48.896;9.192;2023-05-29T08:09:20;28.90;99.90
7934;DHT22;4012;48.896;9.192;2023-05-29T08:11:48;30.20;99.90
7934;DHT22;4012;48.896;9.192;2023-05-29T08:14:14;30.10;99.90
7934;DHT22;4012;48.896;9.192;2023-05-29T08:16:41;30.10;99.90
7934;DHT22;4012;48.896;9.192;2023-05-29T08:19:07;29.90;99.90
7934;DHT22;4012;48.896;9.192;2023-05-29T08:21:32;28.60;99.90
7934;DHT22;4012;48.896;9.192;2023-05-29T08:23:58;29.50;99.90
7934;DHT22;4012;48.896;9.192;2023-05-29T08:26:25;28.70;99.90
7934;DHT22;4012;48.896;9.192;2023-05-29T08:28:51;29.10;99.90
7934;DHT22;4012;48.896;9.192;2023-05-29T08:31:17;29.50;99.90
7934;DHT22;4012;48.896;9.192;2023-05-29T08:33:42;28.40;99.90
7934;DHT22;4012;48.896;9.192;2023-05-29T08:36:08;28.10;99.90
7934;DHT22;4012;48.896;9.192;2023-05-29T08:38:36;27.30;99.90
7934;DHT22;4012;48.896;9.192;2023-05-29T08:41:02;28.60;99.90
7934;DHT22;4012;48.896;9.192;2023-05-29T08:43:31;29.90;99.90
7934;DHT22;4012;48.896;9.192;2023-05-29T08:46:01;29.60;99.90
7934;DHT22;4012;48.896;9.192;2023-05-29T08:48:29;30.20;99.90
7934;DHT22;4012;48.896;9.192;2023-05-29T08:50:57;31.10;99.90
7934;DHT22;4012;48.896;9.192;2023-05-29T08:53:23;30.70;99.90
7934;DHT22;4012;48.896;9.192;2023-05-29T08:55:50;31.00;99.60
7934;DHT22;4012;48.896;9.192;2023-05-29T08:58:19;31.50;99.40
7934;DHT22;4012;48.896;9.192;2023-05-29T09:00:46;30.20;99.90
7934;DHT22;4012;48.896;9.192;2023-05-29T09:03:12;29.50;99.90
7934;DHT22;4012;48.896;9.192;2023-05-29T09:05:39;30.50;99.90
7934;DHT22;4012;48.896;9.192;2023-05-29T09:08:06;29.10;99.90
7934;DHT22;4012;48.896;9.192;2023-05-29T09:10:33;29.30;99.90
7934;DHT22;4012;48.896;9.192;2023-05-29T09:12:59;30.10;99.90
7934;DHT22;4012;48.896;9.192;2023-05-29T09:15:24;31.30;99.90
7934;DHT22;4012;48.896;9.192;2023-05-29T09:17:55;29.70;99.90
7934;DHT22;4012;48.896;9.192;2023-05-29T09:20:22;30.50;99.90
7934;DHT22;4012;48.896;9.192;2023-05-29T09:22:59;30.90;99.00
7934;DHT22;4012;48.896;9.192;2023-05-29T09:25:30;30.70;98.00
7934;DHT22;4012;48.896;9.192;2023-05-29T09:28:02;31.40;97.50
7934;DHT22;4012;48.896;9.192;2023-05-29T09:32:57;32.80;97.30
7934;DHT22;4012;48.896;9.192;2023-05-29T09:35:23;32.20;97.80
7934;DHT22;4012;48.896;9.192;2023-05-29T09:37:49;31.30;97.90
7934;DHT22;4012;48.896;9.192;2023-05-29T09:40:15;29.40;99.90
7934;DHT22;4012;48.896;9.192;2023-05-29T09:42:41;29.10;99.90
7934;DHT22;4012;48.896;9.192;2023-05-29T09:45:07;30.90;99.50
7934;DHT22;4012;48.896;9.192;2023-05-29T09:47:34;30.70;99.10
7934;DHT22;4012;48.896;9.192;2023-05-29T09:50:00;29.40;99.10
7934;DHT22;4012;48.896;9.192;2023-05-29T09:52:29;29.20;96.90
7934;DHT22;4012;48.896;9.192;2023-05-29T09:54:55;28.30;95.90
7934;DHT22;4012;48.896;9.192;2023-05-29T09:57:23;27.80;96.50
7934;DHT22;4012;48.896;9.192;2023-05-29T09:59:50;27.20;96.60
7934;DHT22;4012;48.896;9.192;2023-05-29T10:02:18;27.70;97.10
7934;DHT22;4012;48.896;9.192;2023-05-29T10:04:44;27.50;96.90
7934;DHT22;4012;48.896;9.192;2023-05-29T10:07:15;27.90;96.70
7934;DHT22;4012;48.896;9.192;2023-05-29T10:09:44;26.90;96.30
7934;DHT22;4012;48.896;9.192;2023-05-29T10:12:11;27.20;96.10
7934;DHT22;4012;48.896;9.192;2023-05-29T10:14:40;27.70;96.00
7934;DHT22;4012;48.896;9.192;2023-05-29T10:17:07;28.20;95.20
7934;DHT22;4012;48.896;9.192;2023-05-29T10:19:36;27.60;96.40
7934;DHT22;4012;48.896;9.192;2023-05-29T10:22:03;28.40;95.50
7934;DHT22;4012;48.896;9.192;2023-05-29T10:24:30;27.50;95.70
7934;DHT22;4012;48.896;9.192;2023-05-29T10:26:57;27.80;96.50
7934;DHT22;4012;48.896;9.192;2023-05-29T10:37:44;29.00;94.30
7934;DHT22;4012;48.896;9.192;2023-05-29T10:40:11;29.50;94.50
7934;DHT22;4012;48.896;9.192;2023-05-29T10:42:51;27.90;94.00
7934;DHT22;4012;48.896;9.192;2023-05-29T10:47:55;27.20;96.40
7934;DHT22;4012;48.896;9.192;2023-05-29T10:50:43;27.10;96.10
7934;DHT22;4012;48.896;9.192;2023-05-29T10:53:14;26.60;96.10
7934;DHT22;4012;48.896;9.192;2023-05-29T10:55:42;26.00;96.20
7934;DHT22;4012;48.896;9.192;2023-05-29T10:58:21;26.00;96.20
7934;DHT22;4012;48.896;9.192;2023-05-29T11:00:48;26.10;96.10
7934;DHT22;4012;48.896;9.192;2023-05-29T11:03:15;26.20;95.60
7934;DHT22;4012;48.896;9.192;2023-05-29T11:06:00;26.40;95.40
7934;DHT22;4012;48.896;9.192;2023-05-29T11:11:32;25.90;95.60
7934;DHT22;4012;48.896;9.192;2023-05-29T11:14:05;25.90;94.60
7934;DHT22;4012;48.896;9.192;2023-05-29T11:19:06;26.00;93.70
7934;DHT22;4012;48.896;9.192;2023-05-29T11:22:05;25.90;93.70
7934;DHT22;4012;48.896;9.192;2023-05-29T11:24:34;25.80;92.40
7934;DHT22;4012;48.896;9.192;2023-05-29T11:27:03;25.60;91.50
7934;DHT22;4012;48.896;9.192;2023-05-29T11:29:32;25.80;92.80
7934;DHT22;4012;48.896;9.192;2023-05-29T11:32:05;26.30;92.70
7934;DHT22;4012;48.896;9.192;2023-05-29T11:34:38;26.60;92.60
7934;DHT22;4012;48.896;9.192;2023-05-29T11:37:04;25.80;92.70
7934;DHT22;4012;48.896;9.192;2023-05-29T11:39:30;25.60;92.30
7934;DHT22;4012;48.896;9.192;2023-05-29T11:42:00;25.50;92.00
7934;DHT22;4012;48.896;9.192;2023-05-29T11:44:25;25.80;92.50
7934;DHT22;4012;48.896;9.192;2023-05-29T11:47:06;26.00;91.20
7934;DHT22;4012;48.896;9.192;2023-05-29T11:49:36;25.30;88.60
7934;DHT22;4012;48.896;9.192;2023-05-29T11:52:13;25.50;90.00
7934;DHT22;4012;48.896;9.192;2023-05-29T11:54:43;26.00;89.50
7934;DHT22;4012;48.896;9.192;2023-05-29T11:57:18;26.20;90.20
7934;DHT22;4012;48.896;9.192;2023-05-29T11:59:43;25.60;89.60
7934;DHT22;4012;48.896;9.192;2023-05-29T12:02:09;26.20;90.30
7934;DHT22;4012;48.896;9.192;2023-05-29T12:04:35;26.00;87.70
7934;DHT22;4012;48.896;9.192;2023-05-29T12:07:01;25.70;89.50
7934;DHT22;4012;48.896;9.192;2023-05-29T12:09:28;25.80;90.00
7934;DHT22;4012;48.896;9.192;2023-05-29T12:12:04;26.20;90.10
7934;DHT22;4012;48.896;9.192;2023-05-29T12:14:30;26.60;89.30
7934;DHT22;4012;48.896;9.192;2023-05-29T12:16:56;26.30;89.00
7934;DHT22;4012;48.896;9.192;2023-05-29T12:19:22;26.10;90.50
7934;DHT22;4012;48.896;9.192;2023-05-29T12:21:47;26.30;89.20
7934;DHT22;4012;48.896;9.192;2023-05-29T12:24:13;26.40;89.80
7934;DHT22;4012;48.896;9.192;2023-05-29T12:26:39;26.80;87.50
7934;DHT22;4012;48.896;9.192;2023-05-29T12:29:04;27.00;85.20
7934;DHT22;4012;48.896;9.192;2023-05-29T12:31:31;26.20;86.10
7934;DHT22;4012;48.896;9.192;2023-05-29T12:34:01;26.10;87.20
7934;DHT22;4012;48.896;9.192;2023-05-29T12:36:27;25.50;86.60
7934;DHT22;4012;48.896;9.192;2023-05-29T12:38:53;25.90;87.90
7934;DHT22;4012;48.896;9.192;2023-05-29T12:41:26;26.40;86.80
7934;DHT22;4012;48.896;9.192;2023-05-29T12:43:56;26.10;86.90
7934;DHT22;4012;48.896;9.192;2023-05-29T12:46:26;25.80;86.40
7934;DHT22;4012;48.896;9.192;2023-05-29T12:48:55;25.50;87.00
7934;DHT22;4012;48.896;9.192;2023-05-29T12:51:27;25.70;87.80
7934;DHT22;4012;48.896;9.192;2023-05-29T12:53:53;26.00;87.50
7934;DHT22;4012;48.896;9.192;2023-05-29T12:56:24;26.20;84.40
7934;DHT22;4012;48.896;9.192;2023-05-29T12:58:52;26.20;84.60
7934;DHT22;4012;48.896;9.192;2023-05-29T13:01:17;26.50;85.40
7934;DHT22;4012;48.896;9.192;2023-05-29T13:03:43;26.60;84.40
7934;DHT22;4012;48.896;9.192;2023-05-29T13:06:10;26.30;85.10
7934;DHT22;4012;48.896;9.192;2023-05-29T13:08:36;26.30;85.40
7934;DHT22;4012;48.896;9.192;2023-05-29T13:11:01;26.50;85.70
7934;DHT22;4012;48.896;9.192;2023-05-29T13:13:27;26.40;84.90
7934;DHT22;4012;48.896;9.192;2023-05-29T13:15:53;26.10;83.60
7934;DHT22;4012;48.896;9.192;2023-05-29T13:18:18;26.00;83.30
7934;DHT22;4012;48.896;9.192;2023-05-29T13:20:44;26.00;84.60
7934;DHT22;4012;48.896;9.192;2023-05-29T13:23:09;26.20;83.00
7934;DHT22;4012;48.896;9.192;2023-05-29T13:25:35;26.40;82.90
7934;DHT22;4012;48.896;9.192;2023-05-29T13:28:00;26.30;82.10
7934;DHT22;4012;48.896;9.192;2023-05-29T13:30:26;26.30;82.40
7934;DHT22;4012;48.896;9.192;2023-05-29T13:32:52;26.10;83.90
7934;DHT22;4012;48.896;9.192;2023-05-29T13:35:18;26.20;83.40
7934;DHT22;4012;48.896;9.192;2023-05-29T13:37:44;26.30;82.60
7934;DHT22;4012;48.896;9.192;2023-05-29T13:40:10;26.30;84.30
7934;DHT22;4012;48.896;9.192;2023-05-29T13:42:36;26.20;84.90
7934;DHT22;4012;48.896;9.192;2023-05-29T13:45:03;26.20;83.20
7934;DHT22;4012;48.896;9.192;2023-05-29T13:47:29;26.40;83.40
7934;DHT22;4012;48.896;9.192;2023-05-29T13:49:57;26.40;83.50
7934;DHT22;4012;48.896;9.192;2023-05-29T13:52:22;26.40;83.10
7934;DHT22;4012;48.896;9.192;2023-05-29T13:54:48;26.40;83.50
7934;DHT22;4012;48.896;9.192;2023-05-29T13:57:14;26.10;86.60
7934;DHT22;4012;48.896;9.192;2023-05-29T13:59:39;26.30;86.40
7934;DHT22;4012;48.896;9.192;2023-05-29T14:02:06;26.40;85.60
7934;DHT22;4012;48.896;9.192;2023-05-29T14:04:33;26.20;85.40
7934;DHT22;4012;48.896;9.192;2023-05-29T14:06:59;26.20;85.80
7934;DHT22;4012;48.896;9.192;2023-05-29T14:09:24;26.50;87.30
7934;DHT22;4012;48.896;9.192;2023-05-29T14:11:57;26.40;88.00
7934;DHT22;4012;48.896;9.192;2023-05-29T14:14:23;26.30;86.60
7934;DHT22;4012;48.896;9.192;2023-05-29T14:16:50;26.30;86.10
7934;DHT22;4012;48.896;9.192;2023-05-29T14:19:17;26.40;87.30
7934;DHT22;4012;48.896;9.192;2023-05-29T14:21:43;26.30;86.40
7934;DHT22;4012;48.896;9.192;2023-05-29T14:24:09;26.10;88.10
7934;DHT22;4012;48.896;9.192;2023-05-29T14:26:35;26.40;87.40
7934;DHT22;4012;48.896;9.192;2023-05-29T14:29:01;26.40;87.80
7934;DHT22;4012;48.896;9.192;2023-05-29T14:31:26;26.50;88.50
7934;DHT22;4012;48.896;9.192;2023-05-29T14:33:52;26.20;89.20
7934;DHT22;4012;48.896;9.192;2023-05-29T14:36:18;26.70;87.80
7934;DHT22;4012;48.896;9.192;2023-05-29T14:38:43;26.50;87.00
7934;DHT22;4012;48.896;9.192;2023-05-29T14:41:10;26.50;87.60
7934;DHT22;4012;48.896;9.192;2023-05-29T14:43:37;26.50;90.10
7934;DHT22;4012;48.896;9.192;2023-05-29T14:46:03;26.30;89.80
7934;DHT22;4012;48.896;9.192;2023-05-29T14:48:28;26.40;90.20
7934;DHT22;4012;48.896;9.192;2023-05-29T14:50:54;26.40;89.40
7934;DHT22;4012;48.896;9.192;2023-05-29T14:53:19;26.60;89.70
7934;DHT22;4012;48.896;9.192;2023-05-29T14:55:46;26.20;90.00
7934;DHT22;4012;48.896;9.192;2023-05-29T14:58:11;26.10;90.30
7934;DHT22;4012;48.896;9.192;2023-05-29T15:00:39;26.30;90.40
7934;DHT22;4012;48.896;9.192;2023-05-29T15:03:04;26.40;91.00
7934;DHT22;4012;48.896;9.192;2023-05-29T15:05:30;26.20;90.30
7934;DHT22;4012;48.896;9.192;2023-05-29T15:07:56;26.30;91.10
7934;DHT22;4012;48.896;9.192;2023-05-29T15:10:24;26.20;90.50
7934;DHT22;4012;48.896;9.192;2023-05-29T15:12:52;26.30;90.30
7934;DHT22;4012;48.896;9.192;2023-05-29T15:15:25;26.20;90.40
7934;DHT22;4012;48.896;9.192;2023-05-29T15:17:52;26.40;90.20
7934;DHT22;4012;48.896;9.192;2023-05-29T15:20:21;26.50;90.10
7934;DHT22;4012;48.896;9.192;2023-05-29T15:22:47;26.50;90.10
7934;DHT22;4012;48.896;9.192;2023-05-29T15:25:14;26.60;88.60
7934;DHT22;4012;48.896;9.192;2023-05-29T15:27:39;26.60;89.10
7934;DHT22;4012;48.896;9.192;2023-05-29T15:30:12;26.50;90.20
7934;DHT22;4012;48.896;9.192;2023-05-29T15:32:39;26.30;90.50
7934;DHT22;4012;48.896;9.192;2023-05-29T15:35:09;26.40;90.90
7934;DHT22;4012;48.896;9.192;2023-05-29T15:37:35;26.40;90.20
7934;DHT22;4012;48.896;9.192;2023-05-29T15:40:02;26.20;89.80
7934;DHT22;4012;48.896;9.192;2023-05-29T15:42:28;26.10;89.20
7934;DHT22;4012;48.896;9.192;2023-05-29T15:44:54;25.90;90.30
7934;DHT22;4012;48.896;9.192;2023-05-29T15:47:19;25.90;90.20
7934;DHT22;4012;48.896;9.192;2023-05-29T15:49:45;26.00;90.20
7934;DHT22;4012;48.896;9.192;2023-05-29T15:52:10;25.90;89.40
7934;DHT22;4012;48.896;9.192;2023-05-29T15:54:36;25.90;88.90
7934;DHT22;4012;48.896;9.192;2023-05-29T15:57:02;25.90;88.80
7934;DHT22;4012;48.896;9.192;2023-05-29T15:59:28;26.00;88.40
7934;DHT22;4012;48.896;9.192;2023-05-29T16:01:54;26.10;88.50
7934;DHT22;4012;48.896;9.192;2023-05-29T16:04:19;26.20;88.90
7934;DHT22;4012;48.896;9.192;2023-05-29T16:06:45;26.10;88.50
7934;DHT22;4012;48.896;9.192;2023-05-29T16:09:10;26.00;87.80
7934;DHT22;4012;48.896;9.192;2023-05-29T16:11:37;26.10;88.90
7934;DHT22;4012;48.896;9.192;2023-05-29T16:14:03;26.00;88.80
7934;DHT22;4012;48.896;9.192;2023-05-29T16:16:29;25.90;88.40
7934;DHT22;4012;48.896;9.192;2023-05-29T16:18:57;25.80;88.70